Weather History for K2G4 - April, 2014

Change the Weather History Date:

Thursday, April 10, 2014

  Actual Average (KMGW) Record (KMGW)
Temperature  
Mean Temperature 50 °F 51 °F  
Max Temperature 64 °F 62 °F 86 °F (2013)
Min Temperature 35 °F 40 °F 14 °F (1985)
Degree Days  
Heating Degree Days 16 14  
Month to date heating degree days 158  
Since 1 July heating degree days 4759  
Cooling Degree Days 0 0  
Month to date cooling degree days 0  
Year to date cooling degree days 2  
Moisture  
Dew Point 15 °F    
Average Humidity 29    
Maximum Humidity 52    
Minimum Humidity 9    
Precipitation  
Precipitation 0.00 in 0.12 in 1.01 in (1959)
Month to date precipitation 1.19  
Year to date precipitation 10.25  
Sea Level Pressure  
Sea Level Pressure 30.05 in    
Wind  
Wind Speed 9 mph (SW)    
Max Wind Speed 16 mph    
Max Gust Speed 26 mph    
Visibility 10 miles    
Events      
T = Trace of Precipitation, MM = Missing Value Source: NWS Daily Summary

Daily Weather History Graph

Daily Weather History Graph

Search for Another Location

Airport or City:

Trip Planner

Search our weather history database for the weather conditions in past years. The results will help you decide how hot, cold, wet, or windy it might be!

Date:

Astronomy

Apr. 10, 2014 Rise Set
Actual Time 6:47 AM EDT 7:50 PM EDT
Civil Twilight 6:20 AM EDT 8:17 PM EDT
Nautical Twilight 5:47 AM EDT 8:50 PM EDT
Astronomical Twilight 5:13 AM EDT 9:25 PM EDT
Moon 3:33 PM EDT (4/10) 4:08 AM EDT (4/10)
Length of Visible Light 13h 57m
Length of Day
13h 02m
Waxing Gibbous, 79% of the Moon is Illuminated
Apr 10
Waxing Gibbous
Apr 15
Full
Apr 22
Last Quarter
Apr 29
New
May 6
First Quarter

Hourly Weather History & Observations

Time (EDT) Temp. Windchill Dew Point Humidity Pressure Visibility Wind Dir Wind Speed Gust Speed Precip Events Conditions
12:15 AM 37.4 °F 33.8 °F 17.6 °F 45% 30.05 in 10.0 mi WNW 4.6 mph - N/A   Clear
12:35 AM 37.4 °F 33.8 °F 17.6 °F 45% 30.06 in 10.0 mi West 4.6 mph - N/A   Clear
12:55 AM 37.4 °F 34.9 °F 17.6 °F 45% 30.06 in 10.0 mi West 3.5 mph - N/A   Clear
1:15 AM 37.4 °F 33.8 °F 19.4 °F 48% 30.06 in 10.0 mi WSW 4.6 mph - N/A   Clear
1:35 AM 35.6 °F 31.7 °F 19.4 °F 52% 30.06 in 10.0 mi West 4.6 mph - N/A   Clear
1:55 AM 37.4 °F 32.8 °F 19.4 °F 48% 30.06 in 10.0 mi WSW 5.8 mph - N/A   Clear
2:15 AM 37.4 °F 32.8 °F 19.4 °F 48% 30.05 in 10.0 mi WSW 5.8 mph - N/A   Clear
2:35 AM 37.4 °F 32.1 °F 19.4 °F 48% 30.05 in 10.0 mi WSW 6.9 mph - N/A   Clear
2:55 AM 37.4 °F 32.1 °F 19.4 °F 48% 30.05 in 10.0 mi SW 6.9 mph - N/A   Clear
3:15 AM 37.4 °F 32.1 °F 19.4 °F 48% 30.05 in 10.0 mi SW 6.9 mph - N/A   Clear
3:35 AM 37.4 °F 31.4 °F 19.4 °F 48% 30.05 in 10.0 mi SW 8.1 mph - N/A   Clear
3:55 AM 37.4 °F 31.4 °F 19.4 °F 48% 30.06 in 10.0 mi SW 8.1 mph - N/A   Clear
4:15 AM 37.4 °F 31.4 °F 19.4 °F 48% 30.06 in 10.0 mi SW 8.1 mph - N/A   Clear
4:35 AM 37.4 °F 31.4 °F 19.4 °F 48% 30.07 in 10.0 mi SW 8.1 mph - N/A   Clear
4:55 AM 37.4 °F 30.8 °F 19.4 °F 48% 30.07 in 10.0 mi SW 9.2 mph - N/A   Clear
5:15 AM 37.4 °F 30.8 °F 19.4 °F 48% 30.08 in 10.0 mi SW 9.2 mph - N/A   Clear
5:35 AM 37.4 °F 30.8 °F 19.4 °F 48% 30.08 in 10.0 mi SW 9.2 mph - N/A   Clear
5:55 AM 37.4 °F 30.8 °F 19.4 °F 48% 30.08 in 10.0 mi SSW 9.2 mph - N/A   Clear
6:15 AM 37.4 °F 30.3 °F 21.2 °F 52% 30.09 in 10.0 mi SSW 10.4 mph - N/A   Clear
6:35 AM 35.6 °F 28.0 °F 19.4 °F 52% 30.09 in 10.0 mi SW 10.4 mph - N/A   Clear
6:55 AM 37.4 °F 30.8 °F 19.4 °F 48% 30.10 in 10.0 mi SW 9.2 mph - N/A   Clear
7:15 AM 37.4 °F 30.3 °F 19.4 °F 48% 30.11 in 10.0 mi SSW 10.4 mph - N/A   Clear
7:35 AM 39.2 °F 32.0 °F 19.4 °F 45% 30.12 in 10.0 mi SSW 11.5 mph - N/A   Clear
8:15 AM 41.0 °F 35.2 °F 19.4 °F 42% 30.12 in 10.0 mi SSW 9.2 mph - N/A   Clear
8:35 AM 42.8 °F 37.0 °F 19.4 °F 39% 30.13 in 10.0 mi SW 10.4 mph - N/A   Clear
8:55 AM 44.6 °F 38.8 °F 19.4 °F 37% 30.13 in 10.0 mi SW 11.5 mph - N/A   Clear
9:15 AM 46.4 °F 41.9 °F 19.4 °F 34% 30.13 in 10.0 mi SW 9.2 mph 16.1 mph N/A   Clear
9:35 AM 46.4 °F 40.4 °F 19.4 °F 34% 30.12 in 10.0 mi SW 13.8 mph 18.4 mph N/A   Clear
9:55 AM 48.2 °F - 19.4 °F 32% 30.13 in 10.0 mi SW 9.2 mph 20.7 mph N/A   Clear
10:15 AM 50.0 °F - 19.4 °F 30% 30.13 in 10.0 mi WSW 10.4 mph 20.7 mph N/A   Clear
10:35 AM 51.8 °F - 21.2 °F 30% 30.13 in 10.0 mi SW 9.2 mph - N/A   Clear
10:55 AM 51.8 °F - 19.4 °F 28% 30.12 in 10.0 mi SW 11.5 mph 20.7 mph N/A   Clear
11:15 AM 53.6 °F - 19.4 °F 26% 30.12 in 10.0 mi WSW 13.8 mph 20.7 mph N/A   Clear
11:35 AM 53.6 °F - 17.6 °F 24% 30.12 in 10.0 mi SW 12.7 mph 23.0 mph N/A   Clear
11:55 AM 55.4 °F - 15.8 °F 21% 30.11 in 10.0 mi SW 9.2 mph 21.9 mph N/A   Clear
12:15 PM 55.4 °F - 15.8 °F 21% 30.10 in 10.0 mi WSW 10.4 mph 21.9 mph N/A   Clear
12:55 PM 59.0 °F - 15.8 °F 19% 30.08 in 10.0 mi SSW 13.8 mph 19.6 mph N/A   Clear
1:15 PM 59.0 °F - 10.4 °F 15% 30.08 in 10.0 mi SSW 16.1 mph 24.2 mph N/A   Clear
1:55 PM 60.8 °F - 8.6 °F 13% 30.06 in 10.0 mi SW 11.5 mph 23.0 mph N/A   Clear
2:15 PM 60.8 °F - 8.6 °F 13% 30.04 in 10.0 mi South 16.1 mph 23.0 mph N/A   Clear
2:35 PM 60.8 °F - 8.6 °F 13% 30.04 in 10.0 mi SSW 13.8 mph 20.7 mph N/A   Clear
2:55 PM 62.6 °F - 8.6 °F 12% 30.03 in 10.0 mi SW 12.7 mph 25.3 mph N/A   Clear
3:15 PM 62.6 °F - 8.6 °F 12% 30.02 in 10.0 mi SW 12.7 mph 20.7 mph N/A   Clear
3:35 PM 62.6 °F - 5.0 °F 10% 30.02 in 10.0 mi SW 13.8 mph 24.2 mph N/A   Clear
4:15 PM 62.6 °F - 3.2 °F 9% 30.01 in 10.0 mi SW 15.0 mph 26.5 mph N/A   Clear
4:35 PM 64.4 °F - 3.2 °F 9% 29.99 in 10.0 mi SW 11.5 mph 18.4 mph N/A   Clear
4:55 PM 64.4 °F - 3.2 °F 9% 29.99 in 10.0 mi South 13.8 mph 20.7 mph N/A   Clear
5:15 PM 62.6 °F - 3.2 °F 9% 29.99 in 10.0 mi SW 10.4 mph 17.3 mph N/A   Clear
5:35 PM 62.6 °F - 3.2 °F 9% 29.99 in 10.0 mi SW 10.4 mph 21.9 mph N/A   Scattered Clouds
5:55 PM 64.4 °F - 3.2 °F 9% 29.98 in 10.0 mi SSW 11.5 mph 19.6 mph N/A   Scattered Clouds
6:15 PM 62.6 °F - 3.2 °F 9% 29.98 in 10.0 mi SSW 10.4 mph 21.9 mph N/A   Scattered Clouds
6:35 PM 64.4 °F - 5.0 °F 10% 29.97 in 10.0 mi SSW 9.2 mph - N/A   Clear
6:55 PM 62.6 °F - 8.6 °F 12% 29.96 in 10.0 mi South 11.5 mph - N/A   Clear
7:35 PM 60.8 °F - 8.6 °F 13% 29.97 in 10.0 mi SSW 9.2 mph - N/A   Clear
7:55 PM 60.8 °F - 8.6 °F 13% 29.97 in 10.0 mi SSW 10.4 mph 17.3 mph N/A   Clear
8:15 PM 59.0 °F - 10.4 °F 15% 29.97 in 10.0 mi SSW 10.4 mph 16.1 mph N/A   Clear
8:35 PM 59.0 °F - 10.4 °F 15% 29.97 in 10.0 mi SSW 11.5 mph - N/A   Clear
8:55 PM 59.0 °F - 10.4 °F 15% 29.98 in 10.0 mi SSW 11.5 mph - N/A   Clear
9:15 PM 59.0 °F - 12.2 °F 16% 29.98 in 10.0 mi South 10.4 mph - N/A   Clear
9:35 PM 57.2 °F - 14.0 °F 18% 29.99 in 10.0 mi South 11.5 mph - N/A   Clear
9:55 PM 57.2 °F - 15.8 °F 20% 30.00 in 10.0 mi SSW 10.4 mph - N/A   Clear
10:15 PM 55.4 °F - 15.8 °F 21% 30.00 in 10.0 mi SSW 11.5 mph 17.3 mph N/A   Clear
10:35 PM 55.4 °F - 15.8 °F 21% 30.01 in 10.0 mi SSW 9.2 mph - N/A   Clear
10:55 PM 55.4 °F - 15.8 °F 21% 30.01 in 10.0 mi SW 8.1 mph - N/A   Clear
11:15 PM 57.2 °F - 14.0 °F 18% 30.01 in 10.0 mi SW 10.4 mph 16.1 mph N/A   Clear
11:35 PM 57.2 °F - 14.0 °F 18% 30.01 in 10.0 mi SW 10.4 mph 17.3 mph N/A   Clear
11:55 PM 57.2 °F - 14.0 °F 18% 30.01 in 10.0 mi SW 11.5 mph 21.9 mph N/A   Clear